Time;durP1;ratioP1;P1;durP2;ratioP2;P2;SDS_P1;SDS_P2;PMS_P1;PMS_P2;Temp;Humidity;BMP_temperature;BMP_pressure;BME280_temperature;BME280_humidity;BME280_pressure;Samples;Min_cycle;Max_cycle;Signal;HPM_P1;HPM_P2
2022/06/20 00:04:21;;;;;;;3.80;2.47;;;28.10;62.60;;;;;;11017689;32;20350;-66
2022/06/20 00:10:26;;;;;;;2.05;1.80;;;28.00;62.80;;;;;;11018403;32;20023;-67
2022/06/20 00:16:31;;;;;;;4.07;2.30;;;28.00;62.90;;;;;;11004483;32;20018;-66
2022/06/20 00:22:34;;;;;;;3.45;2.03;;;27.90;62.90;;;;;;11018039;32;20390;-67
2022/06/20 00:28:36;;;;;;;3.40;2.20;;;27.80;63.30;;;;;;11015022;32;20045;-66
2022/06/20 00:34:38;;;;;;;3.37;2.37;;;27.60;63.50;;;;;;11017745;32;20292;-67
2022/06/20 00:40:46;;;;;;;2.58;1.87;;;27.50;63.80;;;;;;11017747;32;20032;-73
2022/06/20 00:46:53;;;;;;;12.20;2.83;;;27.40;64.00;;;;;;11019380;32;20037;-73
2022/06/20 00:53:27;;;;;;;2.43;1.93;;;27.40;64.10;;;;;;11025348;32;20044;-73
2022/06/20 00:59:33;;;;;;;3.92;2.62;;;27.30;64.20;;;;;;11025203;32;20014;-74
2022/06/20 01:05:38;;;;;;;3.15;2.12;;;27.10;64.60;;;;;;11025038;32;20044;-73
2022/06/20 01:11:43;;;;;;;3.83;2.80;;;27.10;64.60;;;;;;11024845;32;20045;-74
2022/06/20 01:17:45;;;;;;;4.00;2.78;;;27.20;64.40;;;;;;11024480;32;20056;-74
2022/06/20 01:23:50;;;;;;;4.00;2.75;;;27.30;64.00;;;;;;11024234;32;20030;-73
2022/06/20 01:29:52;;;;;;;4.25;3.00;;;27.30;64.20;;;;;;11023994;32;20069;-73
2022/06/20 01:42:20;;;;;;;4.50;2.90;;;27.20;64.70;;;;;;11023698;32;20022;-73
2022/06/20 01:48:22;;;;;;;7.00;3.72;;;27.10;64.80;;;;;;11023482;32;20088;-73
2022/06/20 01:54:27;;;;;;;3.15;2.37;;;27.10;64.80;;;;;;11023123;32;20030;-73
2022/06/20 02:00:30;;;;;;;3.70;2.58;;;27.10;65.30;;;;;;11021988;32;20034;-73
2022/06/20 02:06:34;;;;;;;3.90;2.58;;;27.00;65.40;;;;;;11022887;32;20425;-74
2022/06/20 02:12:38;;;;;;;4.55;3.60;;;27.00;65.60;;;;;;11022557;32;20030;-73
2022/06/20 02:18:43;;;;;;;4.75;3.42;;;27.00;65.20;;;;;;11022264;32;20023;-73
2022/06/20 02:24:49;;;;;;;3.87;3.08;;;26.90;64.80;;;;;;11022012;32;20034;-74
2022/06/20 02:30:51;;;;;;;5.25;2.75;;;26.80;64.80;;;;;;11021905;32;20052;-73
2022/06/20 02:36:55;;;;;;;5.62;3.83;;;26.80;65.00;;;;;;11021739;32;20015;-74
2022/06/20 02:43:05;;;;;;;4.60;3.10;;;26.80;65.00;;;;;;11021472;32;20022;-74
2022/06/20 02:49:09;;;;;;;3.87;2.95;;;26.80;65.10;;;;;;11021208;32;20026;-73
2022/06/20 02:55:16;;;;;;;4.40;2.90;;;26.70;65.50;;;;;;11020975;32;20022;-73
2022/06/20 03:01:24;;;;;;;4.05;2.53;;;26.70;65.60;;;;;;11020669;32;20308;-73
2022/06/20 03:07:30;;;;;;;4.28;3.42;;;26.70;65.70;;;;;;11020696;32;20014;-73
2022/06/20 03:13:34;;;;;;;4.70;3.72;;;26.60;65.90;;;;;;11020227;32;20396;-73
2022/06/20 03:19:40;;;;;;;5.62;2.87;;;26.60;65.50;;;;;;11020350;32;20398;-73
2022/06/20 03:25:42;;;;;;;6.10;2.95;;;26.50;65.70;;;;;;11019756;32;20065;-73
2022/06/20 03:31:44;;;;;;;7.93;3.40;;;26.50;65.90;;;;;;11019717;32;20402;-73
2022/06/20 03:37:47;;;;;;;3.75;2.45;;;26.50;66.10;;;;;;11019473;32;20425;-73
2022/06/20 03:44:13;;;;;;;4.55;3.20;;;26.40;66.00;;;;;;11019102;32;20322;-73
2022/06/20 03:50:35;;;;;;;4.35;2.65;;;26.40;66.40;;;;;;11019074;32;20026;-73
2022/06/20 03:56:52;;;;;;;2.95;2.35;;;26.30;66.70;;;;;;11018889;32;20382;-73
2022/06/20 04:03:09;;;;;;;4.47;3.12;;;26.30;66.60;;;;;;11018641;32;20022;-73
2022/06/20 04:15:53;;;;;;;6.25;2.60;;;26.30;66.40;;;;;;11018081;32;20021;-74
2022/06/20 04:22:01;;;;;;;3.67;1.87;;;26.30;66.40;;;;;;11017652;32;20025;-74
2022/06/20 04:28:22;;;;;;;4.00;2.33;;;26.30;66.50;;;;;;10996427;26;20104;-73
2022/06/20 04:34:41;;;;;;;7.12;2.95;;;26.30;66.30;;;;;;10942145;32;20023;-73
2022/06/20 04:40:47;;;;;;;3.60;2.78;;;26.30;65.80;;;;;;10942390;32;20066;-73
2022/06/20 04:46:55;;;;;;;4.90;3.08;;;26.40;65.80;;;;;;10942275;32;20271;-74
2022/06/20 04:53:05;;;;;;;3.12;2.72;;;26.40;65.60;;;;;;10941602;32;20061;-74
2022/06/20 04:59:13;;;;;;;4.25;3.20;;;26.40;65.60;;;;;;10941506;32;20046;-74
2022/06/20 05:05:20;;;;;;;4.28;2.92;;;26.50;65.60;;;;;;10941183;32;20057;-74
2022/06/20 05:11:25;;;;;;;3.75;2.87;;;26.60;65.50;;;;;;10941279;32;20429;-74
2022/06/20 05:17:29;;;;;;;3.10;2.58;;;26.60;65.50;;;;;;10941207;32;20058;-73
2022/06/20 05:23:42;;;;;;;4.07;2.78;;;26.60;65.50;;;;;;10941055;32;20023;-73
2022/06/20 05:29:46;;;;;;;2.40;1.95;;;26.70;65.40;;;;;;10940754;32;20030;-74
2022/06/20 05:36:00;;;;;;;2.78;2.15;;;26.80;65.40;;;;;;10946048;32;20053;-73
2022/06/20 05:42:04;;;;;;;3.90;2.45;;;26.80;65.60;;;;;;10947835;32;20319;-74
2022/06/20 05:48:12;;;;;;;3.33;2.33;;;27.00;65.20;;;;;;10947566;32;20042;-73
2022/06/20 05:54:25;;;;;;;3.85;2.87;;;27.10;65.30;;;;;;10947328;32;20342;-66
2022/06/20 06:00:34;;;;;;;3.55;2.40;;;27.20;65.00;;;;;;10946379;32;20061;-67
2022/06/20 06:06:45;;;;;;;4.05;1.90;;;27.30;65.00;;;;;;10933386;32;20358;-67
2022/06/20 06:13:03;;;;;;;4.05;2.55;;;27.40;64.80;;;;;;10942579;32;20019;-67
2022/06/20 06:19:24;;;;;;;;;;;27.60;64.60;;;;;;10946922;32;20027;-67
2022/06/20 06:25:28;;;;;;;3.37;1.62;;;27.70;64.70;;;;;;10944407;32;19941;-67
2022/06/20 06:31:36;;;;;;;6.35;2.85;;;27.80;64.40;;;;;;10904960;32;20056;-68
2022/06/20 06:37:55;;;;;;;5.20;3.30;;;27.90;64.10;;;;;;10908443;32;20038;-69
2022/06/20 06:43:59;;;;;;;6.45;3.67;;;28.00;63.80;;;;;;10903284;32;20022;-68
2022/06/20 06:50:16;;;;;;;4.87;3.85;;;28.20;63.50;;;;;;10907705;32;20031;-66
2022/06/20 06:56:28;;;;;;;5.50;3.72;;;28.30;63.20;;;;;;10918603;32;20026;-66
2022/06/20 07:02:40;;;;;;;5.35;4.12;;;28.30;63.10;;;;;;10942922;32;20429;-66
2022/06/20 07:08:52;;;;;;;7.75;4.45;;;28.30;62.90;;;;;;10944027;32;20053;-66
2022/06/20 07:15:16;;;;;;;4.82;3.75;;;28.40;62.80;;;;;;10940186;32;20031;-67
2022/06/20 07:21:21;;;;;;;3.92;3.10;;;28.50;63.00;;;;;;10944348;32;20073;-66
2022/06/20 07:27:23;;;;;;;4.53;2.97;;;28.60;62.80;;;;;;10937806;32;20092;-66
2022/06/20 07:33:51;;;;;;;4.53;3.67;;;28.60;62.70;;;;;;10943661;32;20045;-67
2022/06/20 07:40:11;;;;;;;6.00;4.35;;;28.80;62.40;;;;;;10939463;32;20059;-68
2022/06/20 07:46:22;;;;;;;4.62;3.15;;;28.90;62.30;;;;;;10943388;32;20054;-68
2022/06/20 07:52:40;;;;;;;3.45;2.45;;;28.90;61.70;;;;;;10943051;32;20023;-66
2022/06/20 07:58:52;;;;;;;3.75;2.58;;;28.90;61.20;;;;;;10928909;32;20015;-66
2022/06/20 08:04:59;;;;;;;4.12;2.60;;;29.00;60.90;;;;;;10929526;32;20049;-66
2022/06/20 08:11:07;;;;;;;3.87;2.90;;;29.10;60.60;;;;;;10942623;32;20471;-66
2022/06/20 08:17:12;;;;;;;4.37;3.10;;;29.20;60.20;;;;;;10942675;32;20042;-67
2022/06/20 08:23:50;;;;;;;4.00;2.95;;;29.30;59.60;;;;;;10942182;32;20050;-67
2022/06/20 08:30:06;;;;;;;5.05;2.92;;;29.30;59.70;;;;;;10773284;32;20351;-66
2022/06/20 08:36:25;;;;;;;4.65;3.35;;;29.40;59.10;;;;;;10788769;32;20046;-66
2022/06/20 08:42:35;;;;;;;6.70;3.47;;;29.30;58.00;;;;;;10785056;32;20385;-66
2022/06/20 08:48:59;;;;;;;4.47;3.33;;;29.40;57.70;;;;;;10788794;32;20291;-69
2022/06/20 08:55:25;;;;;;;5.25;3.65;;;29.70;57.50;;;;;;10789009;32;20058;-68
2022/06/20 09:01:38;;;;;;;4.93;3.65;;;29.90;56.90;;;;;;10810990;32;20065;-67
2022/06/20 09:07:40;;;;;;;5.03;3.17;;;30.00;56.20;;;;;;10940813;32;20050;-67
2022/06/20 09:14:10;;;;;;;4.85;3.17;;;30.20;55.80;;;;;;10949145;32;20011;-66
2022/06/20 09:20:15;;;;;;;4.28;3.08;;;30.30;55.90;;;;;;10948692;32;20391;-67
2022/06/20 09:26:37;;;;;;;4.95;3.05;;;30.40;55.10;;;;;;10948458;32;20011;-67
2022/06/20 09:32:44;;;;;;;12.85;3.80;;;30.60;54.80;;;;;;10796207;33;20033;-66
2022/06/20 09:39:27;;;;;;;5.18;3.22;;;30.60;54.40;;;;;;10795050;33;20570;-66
2022/06/20 09:45:50;;;;;;;4.05;2.97;;;30.60;54.10;;;;;;10790601;33;20028;-67
2022/06/20 09:52:00;;;;;;;5.53;4.03;;;30.80;54.30;;;;;;10791783;33;20028;-66
2022/06/20 09:58:34;;;;;;;12.40;3.42;;;30.90;54.00;;;;;;10790623;33;20055;-72
2022/06/20 10:04:41;;;;;;;4.78;2.85;;;31.20;53.50;;;;;;10793853;33;20048;-73
2022/06/20 10:10:53;;;;;;;5.83;4.90;;;31.30;53.80;;;;;;10938168;32;20124;-73
2022/06/20 10:17:11;;;;;;;3.87;3.40;;;31.40;53.10;;;;;;10947112;32;20041;-74
2022/06/20 10:23:23;;;;;;;3.58;2.85;;;31.30;52.70;;;;;;10945139;32;20034;-73
2022/06/20 10:29:31;;;;;;;6.95;3.15;;;31.30;52.60;;;;;;10932978;32;20014;-73
2022/06/20 10:35:50;;;;;;;5.50;3.33;;;31.50;52.50;;;;;;10946171;32;20054;-73
2022/06/20 10:42:13;;;;;;;6.10;2.85;;;31.90;51.80;;;;;;10945844;32;20042;-74
2022/06/20 10:48:34;;;;;;;4.57;3.40;;;32.10;51.40;;;;;;10944582;32;20049;-73
2022/06/20 10:54:55;;;;;;;8.90;4.12;;;32.30;50.90;;;;;;10945364;32;20049;-73
2022/06/20 11:01:14;;;;;;;11.25;3.08;;;32.40;50.40;;;;;;10945374;32;20019;-74
2022/06/20 11:07:28;;;;;;;6.78;3.75;;;32.60;49.20;;;;;;10931456;32;20035;-67
2022/06/20 11:13:37;;;;;;;6.15;3.37;;;32.80;49.30;;;;;;10944923;32;20033;-67
2022/06/20 11:20:03;;;;;;;10.75;4.35;;;33.10;48.50;;;;;;10944578;32;20041;-68
2022/06/20 11:26:26;;;;;;;4.50;3.20;;;33.40;48.30;;;;;;10944143;32;20065;-66
2022/06/20 11:32:40;;;;;;;6.95;3.72;;;33.60;47.90;;;;;;10943337;32;20335;-66
2022/06/20 11:38:52;;;;;;;9.25;4.35;;;33.90;47.60;;;;;;10943864;32;20308;-68
2022/06/20 11:44:59;;;;;;;4.97;3.00;;;34.20;46.80;;;;;;10942597;32;20058;-67
2022/06/20 11:51:23;;;;;;;6.62;3.72;;;34.30;46.30;;;;;;10939345;32;20330;-67
2022/06/20 11:57:28;;;;;;;4.22;3.20;;;34.60;45.20;;;;;;10942938;32;20057;-67
2022/06/20 12:03:43;;;;;;;5.72;3.35;;;34.50;44.70;;;;;;10942807;32;20045;-66
2022/06/20 12:10:01;;;;;;;7.20;3.40;;;34.70;44.50;;;;;;10943650;32;20323;-69
2022/06/20 12:16:21;;;;;;;8.85;3.45;;;34.90;44.80;;;;;;10942326;32;20084;-69
2022/06/20 12:28:49;;;;;;;16.40;4.30;;;35.10;46.30;;;;;;10976189;27;20034;-70
2022/06/20 12:35:18;;;;;;;8.43;4.10;;;35.20;46.70;;;;;;11003552;32;20026;-68
2022/06/20 12:41:24;;;;;;;7.25;3.33;;;35.10;46.90;;;;;;11015284;32;20018;-68
2022/06/20 12:47:51;;;;;;;6.22;3.97;;;35.10;47.00;;;;;;11017701;32;20061;-68
2022/06/20 12:54:17;;;;;;;5.90;4.15;;;35.10;47.50;;;;;;11013485;32;20018;-68
2022/06/20 13:00:31;;;;;;;7.70;2.95;;;35.00;48.10;;;;;;11017580;32;20342;-69
2022/06/20 13:06:54;;;;;;;4.55;3.53;;;34.90;48.80;;;;;;11003599;32;20022;-70
2022/06/20 13:12:56;;;;;;;8.15;3.72;;;34.80;49.00;;;;;;11012806;32;20045;-70
2022/06/20 13:19:12;;;;;;;8.52;3.60;;;35.00;48.30;;;;;;11013035;32;20026;-67
2022/06/20 13:25:25;;;;;;;;;;;35.00;47.80;;;;;;11017424;32;20049;-68
2022/06/20 13:31:41;;;;;;;4.18;2.55;;;35.10;47.70;;;;;;11003346;32;19944;-67
2022/06/20 13:37:57;;;;;;;6.72;3.62;;;34.90;47.90;;;;;;11016912;32;20409;-69
2022/06/20 13:44:27;;;;;;;4.22;3.03;;;34.90;48.30;;;;;;11016395;32;20023;-70
2022/06/20 13:50:42;;;;;;;6.05;3.80;;;34.80;49.10;;;;;;11016486;32;20052;-69
2022/06/20 13:57:13;;;;;;;5.18;3.47;;;34.80;48.70;;;;;;11020595;32;20372;-69
2022/06/20 14:03:46;;;;;;;4.70;3.70;;;34.80;49.40;;;;;;11015426;32;20112;-67
2022/06/20 14:09:53;;;;;;;4.03;3.03;;;34.60;49.40;;;;;;10984978;32;20386;-67
2022/06/20 14:16:15;;;;;;;4.70;2.72;;;34.40;50.10;;;;;;10971475;32;20054;-70
2022/06/20 14:22:31;;;;;;;5.55;3.20;;;34.30;50.50;;;;;;10984610;32;20023;-71
2022/06/20 14:28:38;;;;;;;4.33;2.63;;;34.40;50.10;;;;;;10970547;32;20023;-68
2022/06/20 14:41:40;;;;;;;7.43;3.42;;;34.40;50.10;;;;;;10983500;32;20056;-68
2022/06/20 14:48:02;;;;;;;7.05;2.97;;;34.30;50.50;;;;;;10970013;32;20042;-69
2022/06/20 14:54:18;;;;;;;9.25;3.67;;;34.20;50.60;;;;;;10983131;32;20023;-68
2022/06/20 15:00:30;;;;;;;8.23;3.80;;;34.20;50.70;;;;;;10965468;32;20022;-68
2022/06/20 15:06:48;;;;;;;4.65;3.55;;;34.00;52.10;;;;;;10969378;32;20386;-71
2022/06/20 15:12:54;;;;;;;6.87;3.97;;;33.80;52.00;;;;;;10982738;32;20026;-73
2022/06/20 15:19:18;;;;;;;3.45;2.80;;;33.90;51.90;;;;;;10982535;32;20041;-73
2022/06/20 15:25:20;;;;;;;6.75;2.78;;;34.00;51.60;;;;;;10968828;32;20061;-73
2022/06/20 15:31:29;;;;;;;5.37;3.50;;;34.00;52.00;;;;;;11006188;32;20022;-73
2022/06/20 15:37:32;;;;;;;4.22;2.67;;;33.90;52.50;;;;;;11015732;32;20022;-73
2022/06/20 15:43:43;;;;;;;4.28;2.50;;;33.80;52.70;;;;;;11020017;32;20066;-73
2022/06/20 15:49:52;;;;;;;5.43;3.00;;;33.80;52.40;;;;;;11019709;32;20398;-71
2022/06/20 15:56:13;;;;;;;3.12;2.17;;;33.80;53.20;;;;;;11006091;32;20048;-73
2022/06/20 16:02:24;;;;;;;3.28;2.25;;;33.60;52.90;;;;;;11017169;32;20053;-74
2022/06/20 16:08:48;;;;;;;6.55;2.92;;;33.60;53.20;;;;;;11005406;32;20068;-73
2022/06/20 16:15:19;;;;;;;4.12;2.87;;;33.60;53.40;;;;;;10966866;32;20022;-73
2022/06/20 16:21:25;;;;;;;8.10;2.42;;;33.50;53.50;;;;;;10826853;32;20035;-73
2022/06/20 16:27:31;;;;;;;16.90;3.73;;;33.40;54.00;;;;;;10826341;32;20066;-67
2022/06/20 16:33:47;;;;;;;7.30;3.42;;;33.60;53.90;;;;;;10827741;32;20028;-68
2022/06/20 16:39:53;;;;;;;6.15;2.25;;;33.60;53.70;;;;;;10826210;32;20302;-68
2022/06/20 16:46:22;;;;;;;3.70;2.65;;;33.50;53.90;;;;;;10826534;32;20071;-69
2022/06/20 16:53:05;;;;;;;9.73;3.60;;;33.40;54.20;;;;;;10822243;33;20138;-68
2022/06/20 16:59:15;;;;;;;2.78;2.35;;;33.40;54.10;;;;;;10988199;32;20034;-69
2022/06/20 17:05:42;;;;;;;2.33;1.98;;;33.30;54.80;;;;;;11017675;32;20049;-69
2022/06/20 17:11:54;;;;;;;4.68;3.33;;;33.30;55.20;;;;;;11017031;32;20037;-67
2022/06/20 17:18:18;;;;;;;6.90;3.75;;;33.30;54.70;;;;;;11017565;32;20022;-68
2022/06/20 17:24:36;;;;;;;6.62;4.12;;;33.30;54.50;;;;;;11017818;32;20079;-69
2022/06/20 17:31:06;;;;;;;8.48;3.58;;;33.20;54.70;;;;;;11017958;32;20049;-73
2022/06/20 17:37:19;;;;;;;8.07;4.53;;;33.20;54.90;;;;;;11024122;32;20049;-73
2022/06/20 17:43:41;;;;;;;6.03;3.00;;;33.10;54.60;;;;;;11024184;32;20109;-73
2022/06/20 17:50:16;;;;;;;8.85;3.53;;;33.30;54.10;;;;;;11023649;32;20029;-73
2022/06/20 17:56:55;;;;;;;5.93;3.45;;;33.60;53.80;;;;;;11009526;32;20033;-71
2022/06/20 18:03:11;;;;;;;4.87;2.95;;;34.40;52.30;;;;;;10987588;32;20334;-69
2022/06/20 18:09:47;;;;;;;2.62;2.05;;;34.00;52.90;;;;;;11016040;32;20076;-68
2022/06/20 18:16:14;;;;;;;3.45;2.70;;;33.40;54.10;;;;;;11017680;32;20077;-69
2022/06/20 18:22:28;;;;;;;6.72;3.50;;;33.00;54.70;;;;;;10987582;32;20326;-69
2022/06/20 18:28:35;;;;;;;4.57;2.90;;;32.80;55.30;;;;;;10998681;32;20053;-72
2022/06/20 18:34:39;;;;;;;4.85;2.60;;;32.40;55.60;;;;;;11002672;32;20049;-70
2022/06/20 18:40:44;;;;;;;4.85;3.15;;;32.10;56.10;;;;;;10982660;32;20069;-71
2022/06/20 18:46:58;;;;;;;4.90;2.83;;;31.80;56.80;;;;;;10983625;32;20057;-71
2022/06/20 18:53:12;;;;;;;7.37;3.42;;;31.70;57.10;;;;;;10984811;32;20041;-71
2022/06/20 18:59:24;;;;;;;4.75;2.80;;;31.50;57.20;;;;;;10981049;32;20030;-72
2022/06/20 19:05:38;;;;;;;5.93;3.90;;;31.30;57.40;;;;;;11020029;32;20053;-72
2022/06/20 19:12:02;;;;;;;3.87;2.90;;;31.20;57.80;;;;;;11006162;32;20034;-73
2022/06/20 19:18:33;;;;;;;4.15;2.90;;;31.00;58.20;;;;;;11004981;32;20369;-73
2022/06/20 19:25:10;;;;;;;4.15;2.80;;;31.00;58.20;;;;;;10981766;32;20054;-72
2022/06/20 19:31:41;;;;;;;6.82;2.72;;;30.90;58.20;;;;;;10982124;32;20361;-73
2022/06/20 19:37:45;;;;;;;3.15;2.85;;;30.90;58.20;;;;;;10828931;32;20070;-73
2022/06/20 19:43:48;;;;;;;3.53;1.98;;;30.90;58.20;;;;;;10815465;32;20028;-67
2022/06/20 19:49:54;;;;;;;2.42;1.90;;;30.90;58.30;;;;;;10828555;32;20301;-67
2022/06/20 19:55:59;;;;;;;3.45;1.65;;;30.90;58.30;;;;;;10826497;32;20071;-69
2022/06/20 20:02:14;;;;;;;2.90;2.15;;;30.80;58.40;;;;;;10827886;32;20344;-68
2022/06/20 20:08:24;;;;;;;3.10;1.98;;;30.80;58.50;;;;;;10823872;32;20032;-68
2022/06/20 20:15:14;;;;;;;6.93;2.30;;;30.80;58.50;;;;;;10944269;32;20088;-68
2022/06/20 20:21:34;;;;;;;7.85;2.22;;;30.70;58.80;;;;;;10825999;32;20114;-68
2022/06/20 20:28:20;;;;;;;3.75;2.33;;;30.60;59.30;;;;;;10243481;27;18973887;-67
2022/06/20 20:34:56;;;;;;;4.30;2.05;;;30.60;59.40;;;;;;10752661;33;20029;-67
2022/06/20 20:41:10;;;;;;;3.42;2.03;;;30.50;59.50;;;;;;10753816;33;20051;-68
2022/06/20 20:47:21;;;;;;;2.33;1.77;;;30.50;59.70;;;;;;10748973;33;20067;-68
2022/06/20 20:53:30;;;;;;;2.90;1.65;;;30.40;60.30;;;;;;10764823;33;20028;-67
2022/06/20 20:59:41;;;;;;;3.47;1.95;;;30.30;61.10;;;;;;10825826;33;20042;-67
2022/06/20 21:05:52;;;;;;;4.43;2.20;;;30.30;61.00;;;;;;10829519;32;20043;-66
2022/06/20 21:11:57;;;;;;;3.22;2.00;;;30.30;61.60;;;;;;10974106;32;20046;-67
2022/06/20 21:18:09;;;;;;;9.65;2.35;;;30.20;61.50;;;;;;10973222;32;20022;-66
2022/06/20 21:24:52;;;;;;;2.35;1.80;;;30.20;61.50;;;;;;10978121;32;20049;-67
2022/06/20 21:30:56;;;;;;;3.80;2.65;;;30.00;61.50;;;;;;10986213;32;20026;-66
2022/06/20 21:37:02;;;;;;;3.83;2.72;;;29.90;61.70;;;;;;10986135;32;20015;-67
2022/06/20 21:43:18;;;;;;;7.18;3.42;;;29.80;61.80;;;;;;10985550;32;20060;-67
2022/06/20 21:49:25;;;;;;;6.28;4.15;;;29.90;61.70;;;;;;10985529;32;20031;-73
2022/06/20 21:55:29;;;;;;;4.97;3.07;;;29.90;61.60;;;;;;10985524;32;20491;-73
2022/06/20 22:08:06;;;;;;;4.90;3.30;;;29.80;62.00;;;;;;10985014;32;20054;-73
2022/06/20 22:14:13;;;;;;;3.53;2.60;;;29.80;62.10;;;;;;10984276;32;20015;-73
2022/06/20 22:20:33;;;;;;;4.40;3.03;;;29.70;62.10;;;;;;10984164;32;20054;-73
2022/06/20 22:26:36;;;;;;;5.57;3.42;;;29.60;62.50;;;;;;10970564;32;20057;-73
2022/06/20 22:32:42;;;;;;;6.43;3.83;;;29.60;62.50;;;;;;10984075;32;20053;-73
2022/06/20 22:38:49;;;;;;;4.03;3.03;;;29.50;62.80;;;;;;10984088;32;20068;-73
2022/06/20 22:44:52;;;;;;;4.47;3.45;;;29.50;63.60;;;;;;10983388;32;20023;-73
2022/06/20 22:51:05;;;;;;;4.15;2.92;;;29.40;63.40;;;;;;10983137;32;20023;-73
2022/06/20 22:57:36;;;;;;;3.70;2.92;;;29.40;63.50;;;;;;10982947;32;20026;-73
2022/06/20 23:03:39;;;;;;;4.28;3.22;;;29.30;64.10;;;;;;10982827;32;20034;-73
2022/06/20 23:09:49;;;;;;;3.70;2.62;;;29.20;64.00;;;;;;10982595;32;20015;-73
2022/06/20 23:15:51;;;;;;;4.22;2.87;;;29.20;64.00;;;;;;10982219;32;20394;-73
2022/06/20 23:21:53;;;;;;;3.90;2.28;;;29.30;63.80;;;;;;10981958;32;20014;-73
2022/06/20 23:27:56;;;;;;;7.60;2.50;;;29.20;63.90;;;;;;10981359;32;20101;-73
2022/06/20 23:33:58;;;;;;;4.82;2.53;;;29.10;64.40;;;;;;10981417;32;20015;-73
2022/06/20 23:40:29;;;;;;;3.90;2.78;;;29.00;64.90;;;;;;10981268;32;20320;-73
2022/06/20 23:46:36;;;;;;;3.53;2.58;;;29.00;64.70;;;;;;10962250;32;20014;-73
2022/06/20 23:52:39;;;;;;;5.90;3.03;;;28.90;64.80;;;;;;10981271;32;20019;-73
2022/06/20 23:58:56;;;;;;;6.70;2.90;;;28.90;64.80;;;;;;10980899;32;20045;-73
